Hauptseite
METAR-TAF:

METAR-TAF

Flughäfen :

Bamako, Mali

Flughafen Bamako

Breite: 12-32N, Länge: 007-57W, Höhe: 380 m

Beobachtung

Neuester Wetterbericht von vor 32 Minuten, um 17:30 UTC
Wind 4 kt aus Ost
Temperatur 31°C
Luftfeuchtigkeit 16%
Luftdruck 1011 hPa
Sichtweite 10 km oder mehr
keine Wolken unter 1500 m und keine Kumulonimbus oder Gewitterwolken

METAR: GABS 191730Z 08004KT CAVOK 31/02 Q1011 NOSIG

Zeit: 18:02 (18:02 UTC)

Prognose

Neuester Wetterbericht von vor 1 Stunde und 2 Minuten, um 17:00 UTC
Gültige Prognose vom 19 um 18 UTC bis 20 um 24 UTC
Wind 6 kt aus Nord/Nordost
Sichtweite: 8000 m
Wahrscheinlichkeit 30% :
Zeitweise
vom 20 um 06 UTC bis 20 um 10 UTC
Sichtweite: 4000 m
trockener Dunst

TAF: GABS 191700Z 1918/2024 02006KT 8000 NSC PROB30 TEMPO 2006/2010 4000 HZ

Wetterbeobachtungen und Prognosen von mehr als 4000 Flughäfen (METAR und TAF Bericht).

Die verfügbaren Stationen werden durch gelbe und rote Markierungen auf der Karte dargestellt.

Führen Sie die Maus auf sie, um den Namen der Station zu sehen.

Darauf klicken, um die Beobachtung von Wetterbeobachtungen und Prognosen zu sehen.

Um die Karte zu ändern : klicken Sie auf den grünen Tasten mit einem schwarzen Kreuz Zum Vergrößern, auf den grünen Button mit einem Gedankenstrich zu verkleinern, oder auf die grünen Pfeile für benachbarte Karten.


METAR-TAF: